createdAt,value
2023-03-14T00:00:23.628Z,1.25
2023-03-14T00:02:54.229Z,1.30
2023-03-14T00:05:20.928Z,1.50
2023-03-14T00:07:47.528Z,1.20
2023-03-14T00:10:14.746Z,1.35
2023-03-14T00:12:44.786Z,1.30
2023-03-14T00:15:11.948Z,1.15
2023-03-14T00:17:38.650Z,1.20
2023-03-14T00:20:09.269Z,1.20
2023-03-14T00:22:36.586Z,1.10
2023-03-14T00:25:03.677Z,1.10
2023-03-14T00:27:30.365Z,1.30
2023-03-14T00:29:57.016Z,1.02
2023-03-14T00:32:23.604Z,1.20
2023-03-14T00:34:50.311Z,1.10
2023-03-14T00:37:16.895Z,1.00
2023-03-14T00:39:43.559Z,1.15
2023-03-14T00:42:10.192Z,1.23
2023-03-14T00:44:36.807Z,1.00
2023-03-14T00:47:07.291Z,1.20
2023-03-14T00:49:34.052Z,1.13
2023-03-14T00:52:00.584Z,1.58
2023-03-14T00:54:27.239Z,1.20
2023-03-14T00:56:53.829Z,1.10
2023-03-14T00:59:20.462Z,1.20
2023-03-14T01:01:47.184Z,1.05
2023-03-14T01:04:13.831Z,1.15
2023-03-14T01:06:40.555Z,1.10
2023-03-14T01:09:07.134Z,1.20
2023-03-14T01:11:34.907Z,1.40
2023-03-14T01:14:01.923Z,1.10
2023-03-14T01:16:30.105Z,1.20
2023-03-14T01:18:56.817Z,1.20
2023-03-14T01:21:25.267Z,1.10
2023-03-14T01:23:53.080Z,1.15
2023-03-14T01:26:21.429Z,0.98
2023-03-14T01:28:48.310Z,1.10
2023-03-14T01:31:16.223Z,1.10
2023-03-14T01:33:42.921Z,1.35
2023-03-14T01:36:10.601Z,1.17
2023-03-14T01:38:38.154Z,1.10
2023-03-14T01:41:06.733Z,1.10
2023-03-14T01:43:33.377Z,1.05
2023-03-14T01:46:06.156Z,1.00
2023-03-14T01:48:58.095Z,1.10
2023-03-14T01:51:46.577Z,0.90
2023-03-14T01:54:18.852Z,1.10
2023-03-14T01:56:47.608Z,1.00
2023-03-14T01:59:14.299Z,0.85
2023-03-14T02:01:42.976Z,1.10
2023-03-14T02:04:09.653Z,0.90
2023-03-14T02:07:23.574Z,1.00
2023-03-14T02:10:06.748Z,0.90
2023-03-14T02:12:34.839Z,0.80
2023-03-14T02:15:33.496Z,1.10
2023-03-14T02:18:05.302Z,0.90
2023-03-14T02:21:06.698Z,0.90
2023-03-14T02:24:00.079Z,1.00
2023-03-14T02:26:39.683Z,1.10
2023-03-14T02:29:06.276Z,0.90
2023-03-14T02:31:33.087Z,1.00
2023-03-14T02:33:59.750Z,0.98
2023-03-14T02:36:28.901Z,1.10
2023-03-14T02:39:23.097Z,0.90
2023-03-14T02:41:50.297Z,1.00
2023-03-14T02:44:17.180Z,1.00
2023-03-14T02:46:44.074Z,1.00
2023-03-14T02:49:13.692Z,0.80
2023-03-14T02:51:40.594Z,1.02
2023-03-14T02:54:07.245Z,0.95
2023-03-14T02:56:33.892Z,0.98
2023-03-14T02:59:05.989Z,0.80
2023-03-14T03:01:46.274Z,1.00
2023-03-14T03:04:12.824Z,0.80
2023-03-14T03:06:39.560Z,1.00
2023-03-14T03:09:06.235Z,0.90
2023-03-14T03:11:32.893Z,1.00
2023-03-14T03:13:59.896Z,0.90
2023-03-14T03:16:28.550Z,1.00
2023-03-14T03:18:55.148Z,0.90
2023-03-14T03:21:24.302Z,0.80
2023-03-14T03:23:51.325Z,0.90
2023-03-14T03:26:17.955Z,0.95
2023-03-14T03:28:44.564Z,0.80
2023-03-14T03:31:13.519Z,0.93
2023-03-14T03:33:40.419Z,1.02
2023-03-14T03:36:08.136Z,1.00
2023-03-14T03:38:37.231Z,0.80
2023-03-14T03:41:06.334Z,0.80
2023-03-14T03:43:33.021Z,0.93
2023-03-14T03:46:06.638Z,0.90
2023-03-14T03:48:33.926Z,0.80
2023-03-14T03:51:03.612Z,0.80
2023-03-14T03:53:33.915Z,0.80
2023-03-14T03:56:05.344Z,0.70
2023-03-14T03:58:31.988Z,1.00
2023-03-14T04:00:58.542Z,0.80
2023-03-14T04:03:25.340Z,0.75
2023-03-14T04:06:01.863Z,0.82
2023-03-14T04:08:28.724Z,0.88
2023-03-14T04:10:59.001Z,0.80
2023-03-14T04:13:45.790Z,0.85
2023-03-14T04:16:23.492Z,1.00
2023-03-14T04:18:52.537Z,0.70
2023-03-14T04:21:21.885Z,0.80
2023-03-14T04:23:53.334Z,0.80
2023-03-14T04:26:20.289Z,0.90
2023-03-14T04:28:47.181Z,0.75
2023-03-14T04:31:15.903Z,0.80
2023-03-14T04:33:44.887Z,0.85
2023-03-14T04:36:13.361Z,0.80
2023-03-14T04:38:40.048Z,0.70
2023-03-14T04:41:07.580Z,0.52
2023-03-14T04:43:35.639Z,0.88
2023-03-14T04:46:06.510Z,0.80
2023-03-14T04:48:33.464Z,0.90
2023-03-14T04:51:01.193Z,0.80
2023-03-14T04:53:33.000Z,0.80
2023-03-14T04:56:01.351Z,0.73
2023-03-14T04:58:35.012Z,0.80
2023-03-14T05:01:06.443Z,1.00
2023-03-14T05:03:41.308Z,1.13
2023-03-14T05:06:18.494Z,0.77
2023-03-14T05:08:54.147Z,0.70
2023-03-14T05:11:39.083Z,0.80
2023-03-14T05:14:29.915Z,0.80
2023-03-14T05:17:19.806Z,0.80
2023-03-14T05:20:16.418Z,0.90
2023-03-14T05:23:08.023Z,0.88
2023-03-14T05:25:55.454Z,0.95
2023-03-14T05:28:45.199Z,0.70
2023-03-14T05:31:20.370Z,0.85
2023-03-14T05:34:10.268Z,0.90
2023-03-14T05:36:45.422Z,0.63
2023-03-14T05:39:23.559Z,1.00
2023-03-14T05:42:08.551Z,0.80
2023-03-14T05:44:53.794Z,0.90
2023-03-14T05:47:43.649Z,0.90
2023-03-14T05:50:28.934Z,0.90
2023-03-14T05:55:56.584Z,1.00
2023-03-14T05:58:35.005Z,1.10
2023-03-14T06:01:13.621Z,0.90
2023-03-14T06:04:00.442Z,1.05
2023-03-14T06:06:28.168Z,0.80
2023-03-14T06:08:55.109Z,0.90
2023-03-14T06:11:21.691Z,0.90
2023-03-14T06:13:48.262Z,0.75
2023-03-14T06:16:15.240Z,0.90
2023-03-14T06:18:41.887Z,0.80
2023-03-14T06:21:10.123Z,1.10
2023-03-14T06:23:37.743Z,0.80
2023-03-14T06:26:05.479Z,0.77
2023-03-14T06:28:32.134Z,0.80
2023-03-14T06:31:01.335Z,0.95
2023-03-14T06:33:32.715Z,0.85
2023-03-14T06:36:00.133Z,0.80
2023-03-14T06:38:26.857Z,0.80
2023-03-14T06:40:55.992Z,0.75
2023-03-14T06:43:34.378Z,0.80
2023-03-14T06:46:00.998Z,0.77
2023-03-14T06:48:27.861Z,0.70
2023-03-14T06:50:55.758Z,0.80
2023-03-14T06:53:23.003Z,0.80
2023-03-14T06:55:49.925Z,0.82
2023-03-14T06:58:17.937Z,0.90
2023-03-14T07:00:45.754Z,0.85
2023-03-14T07:03:16.329Z,0.70
2023-03-14T07:05:46.318Z,0.70
2023-03-14T07:08:12.932Z,0.80
2023-03-14T07:10:39.464Z,0.70
2023-03-14T07:13:07.643Z,0.88
2023-03-14T07:15:38.927Z,0.80
2023-03-14T07:18:09.131Z,0.85
2023-03-14T07:20:36.676Z,0.80
2023-03-14T07:23:04.336Z,0.80
2023-03-14T07:25:45.644Z,1.00
2023-03-14T07:28:13.651Z,0.52
2023-03-14T07:30:42.764Z,0.80
2023-03-14T07:33:15.903Z,0.65
2023-03-14T07:35:43.425Z,0.98
2023-03-14T07:38:10.037Z,1.00
2023-03-14T07:40:44.686Z,0.77
2023-03-14T07:43:11.353Z,0.73
2023-03-14T07:45:51.313Z,0.90
2023-03-14T07:48:18.125Z,0.80
2023-03-14T07:50:44.756Z,0.80
2023-03-14T07:53:11.429Z,0.80
2023-03-14T07:55:38.026Z,0.70
2023-03-14T07:58:04.635Z,0.70
2023-03-14T08:00:31.203Z,0.80
2023-03-14T08:02:57.840Z,0.68
2023-03-14T08:05:24.470Z,0.75
2023-03-14T08:07:51.092Z,0.60
2023-03-14T08:10:23.678Z,0.80
2023-03-14T08:12:57.479Z,0.70
2023-03-14T08:15:24.513Z,0.70
2023-03-14T08:17:52.115Z,0.70
2023-03-14T08:20:19.487Z,0.70
2023-03-14T08:22:46.224Z,0.90
2023-03-14T08:25:12.961Z,0.70
2023-03-14T08:27:39.851Z,0.68
2023-03-14T08:30:07.474Z,0.65
2023-03-14T08:32:34.098Z,0.73
2023-03-14T08:35:00.830Z,0.80
2023-03-14T08:37:28.138Z,0.88
2023-03-14T08:39:54.869Z,0.77
2023-03-14T08:42:21.427Z,0.80
2023-03-14T08:44:48.084Z,0.90
2023-03-14T08:47:14.714Z,0.70
2023-03-14T08:49:41.475Z,0.60
2023-03-14T08:52:08.132Z,0.73
2023-03-14T08:54:34.748Z,0.80
2023-03-14T08:57:01.347Z,0.70
2023-03-14T08:59:27.961Z,0.60
2023-03-14T09:01:55.555Z,0.88
2023-03-14T09:04:22.748Z,0.75
2023-03-14T09:06:49.399Z,0.63
2023-03-14T09:09:15.986Z,0.75
2023-03-14T09:11:42.680Z,0.70
2023-03-14T09:14:09.347Z,0.65
2023-03-14T09:16:36.163Z,0.70
2023-03-14T09:19:02.850Z,0.60
2023-03-14T09:21:29.494Z,0.70
2023-03-14T09:23:55.998Z,0.68
2023-03-14T09:26:22.622Z,0.80
2023-03-14T09:28:49.899Z,0.70
2023-03-14T09:31:16.523Z,0.60
2023-03-14T09:33:43.157Z,0.80
2023-03-14T09:36:10.216Z,0.70
2023-03-14T09:38:36.968Z,0.80
2023-03-14T09:41:04.497Z,0.70
2023-03-14T09:43:32.679Z,1.10
2023-03-14T09:45:59.767Z,0.90
2023-03-14T09:48:28.943Z,1.02
2023-03-14T09:50:56.241Z,1.00
2023-03-14T09:53:25.488Z,0.90
2023-03-14T09:55:53.128Z,1.20
2023-03-14T09:58:23.985Z,1.00
2023-03-14T10:00:51.433Z,1.08
2023-03-14T10:03:23.072Z,0.90
2023-03-14T10:05:49.606Z,0.85
2023-03-14T10:08:16.261Z,0.80
2023-03-14T10:10:42.906Z,0.63
2023-03-14T10:13:27.457Z,0.90
2023-03-14T10:15:56.077Z,0.93
2023-03-14T10:18:25.148Z,0.82
2023-03-14T10:21:07.709Z,0.90
2023-03-14T10:23:34.893Z,0.80
2023-03-14T10:26:12.958Z,0.90
2023-03-14T10:28:52.249Z,0.80
2023-03-14T10:31:18.990Z,0.70
2023-03-14T10:33:59.925Z,0.85
2023-03-14T10:36:29.341Z,0.90
2023-03-14T10:39:06.348Z,0.80
2023-03-14T10:41:33.050Z,0.80
2023-03-14T10:44:00.131Z,0.70
2023-03-14T10:46:27.176Z,0.80
2023-03-14T10:49:23.944Z,0.70
2023-03-14T10:51:50.471Z,0.90
2023-03-14T10:54:24.702Z,0.70
2023-03-14T10:56:58.746Z,0.68
2023-03-14T10:59:25.397Z,0.93
2023-03-14T11:02:15.183Z,0.77
2023-03-14T11:05:05.470Z,0.80
2023-03-14T11:07:50.083Z,0.70
2023-03-14T11:10:33.851Z,0.90
2023-03-14T11:13:26.386Z,0.60
2023-03-14T11:15:58.761Z,0.83
2023-03-14T11:18:28.387Z,0.70
2023-03-14T11:20:59.856Z,0.70
2023-03-14T11:24:04.118Z,0.75
2023-03-14T11:26:37.861Z,0.70
2023-03-14T11:29:18.633Z,0.77
2023-03-14T11:31:45.428Z,0.60
2023-03-14T11:34:36.120Z,0.80
2023-03-14T11:37:08.104Z,0.80
2023-03-14T11:39:40.181Z,0.60
2023-03-14T11:42:11.689Z,0.60
2023-03-14T11:44:38.746Z,0.70
2023-03-14T11:47:25.734Z,0.60
2023-03-14T11:49:55.163Z,0.73
2023-03-14T11:52:36.853Z,0.80
2023-03-14T11:55:17.782Z,0.60
2023-03-14T11:57:44.391Z,0.70
2023-03-14T12:00:18.669Z,0.60
2023-03-14T12:02:58.654Z,0.68
2023-03-14T12:05:54.491Z,0.80
2023-03-14T12:08:39.525Z,0.70
2023-03-14T12:11:13.871Z,0.70
2023-03-14T12:13:40.820Z,0.60
2023-03-14T12:16:24.642Z,0.60
2023-03-14T12:18:51.964Z,0.68
2023-03-14T12:21:18.751Z,0.60
2023-03-14T12:23:55.576Z,0.80
2023-03-14T12:26:23.696Z,0.80
2023-03-14T12:28:51.426Z,0.88
2023-03-14T12:31:33.047Z,0.65
2023-03-14T12:34:28.123Z,0.60
2023-03-14T12:37:06.382Z,0.60
2023-03-14T12:39:54.931Z,0.77
2023-03-14T12:42:44.438Z,46.28
2023-03-14T12:45:25.743Z,9.80
2023-03-14T12:48:12.736Z,7.88
2023-03-14T12:50:47.105Z,3.53
2023-03-14T12:53:23.071Z,2.60
2023-03-14T12:56:01.214Z,2.83
2023-03-14T12:58:35.678Z,2.95
2023-03-14T13:01:06.423Z,2.78
2023-03-14T13:03:55.108Z,2.90
2023-03-14T13:06:49.970Z,2.60
2023-03-14T13:09:28.710Z,2.70
2023-03-14T13:11:55.476Z,2.65
2023-03-14T13:14:22.144Z,2.65
2023-03-14T13:16:48.772Z,2.50
2023-03-14T13:19:19.940Z,2.97
2023-03-14T13:21:46.618Z,2.55
2023-03-14T13:24:24.420Z,2.33
2023-03-14T13:26:51.042Z,2.42
2023-03-14T13:29:20.911Z,2.42
2023-03-14T13:31:48.558Z,2.30
2023-03-14T13:34:15.261Z,2.20
2023-03-14T13:36:42.128Z,2.08
2023-03-14T13:39:20.592Z,2.13
2023-03-14T13:41:47.699Z,1.60
2023-03-14T13:44:18.319Z,1.50
2023-03-14T13:46:44.981Z,1.52
2023-03-14T13:49:12.975Z,1.90
2023-03-14T13:51:40.071Z,1.50
2023-03-14T13:54:18.125Z,1.52
2023-03-14T13:56:45.093Z,1.30
2023-03-14T13:59:41.283Z,1.50
2023-03-14T14:02:18.368Z,1.30
2023-03-14T14:04:45.398Z,1.40
2023-03-14T14:07:18.732Z,1.20
2023-03-14T14:09:50.944Z,1.38
2023-03-14T14:12:31.109Z,1.30
2023-03-14T14:15:04.781Z,1.20
2023-03-14T14:17:31.557Z,1.20
2023-03-14T14:19:58.394Z,1.20
2023-03-14T14:22:26.108Z,1.10
2023-03-14T14:24:53.424Z,1.20
2023-03-14T14:27:36.008Z,1.30
2023-03-14T14:30:08.023Z,1.20
2023-03-14T14:32:38.870Z,1.10
2023-03-14T14:35:06.296Z,1.10
2023-03-14T14:37:34.768Z,1.35
2023-03-14T14:40:31.077Z,1.30
2023-03-14T14:43:05.385Z,1.30
2023-03-14T14:45:34.811Z,1.20
2023-03-14T14:48:07.137Z,1.13
2023-03-14T14:50:34.724Z,1.00
2023-03-14T14:53:03.919Z,1.08
2023-03-14T14:55:40.606Z,1.40
2023-03-14T14:58:24.884Z,1.10
2023-03-14T15:00:57.779Z,1.10
2023-03-14T15:03:24.635Z,1.20
2023-03-14T15:05:51.889Z,1.20
2023-03-14T15:08:18.634Z,1.20
2023-03-14T15:10:45.457Z,1.40
2023-03-14T15:13:14.337Z,1.20
2023-03-14T15:15:42.385Z,1.20
2023-03-14T15:18:19.548Z,1.42
2023-03-14T15:20:46.363Z,1.10
2023-03-14T15:23:13.812Z,1.10
2023-03-14T15:25:54.578Z,1.30
2023-03-14T15:28:24.116Z,1.00
2023-03-14T15:30:52.540Z,1.00
2023-03-14T15:33:19.327Z,1.05
2023-03-14T15:35:46.331Z,1.48
2023-03-14T15:38:13.852Z,1.00
2023-03-14T15:40:40.787Z,1.02
2023-03-14T15:43:07.485Z,1.08
2023-03-14T15:45:34.205Z,1.10
2023-03-14T15:48:00.948Z,1.10
2023-03-14T15:50:27.592Z,1.08
2023-03-14T15:52:54.311Z,1.30
2023-03-14T15:55:20.949Z,1.20
2023-03-14T15:57:47.841Z,1.10
2023-03-14T16:00:16.116Z,1.10
2023-03-14T16:02:43.148Z,1.15
2023-03-14T16:05:10.408Z,1.10
2023-03-14T16:07:37.069Z,0.90
2023-03-14T16:10:04.432Z,1.02
2023-03-14T16:12:31.160Z,1.10
2023-03-14T16:14:57.843Z,1.00
2023-03-14T16:17:24.687Z,1.02
2023-03-14T16:19:51.342Z,1.02
2023-03-14T16:22:17.935Z,1.00
2023-03-14T16:24:44.594Z,1.27
2023-03-14T16:27:11.267Z,1.38
2023-03-14T16:29:38.010Z,1.40
2023-03-14T16:32:05.106Z,1.15
2023-03-14T16:34:31.926Z,1.70
2023-03-14T16:36:58.555Z,2.40
2023-03-14T16:39:25.404Z,1.98
2023-03-14T16:41:54.303Z,2.00
2023-03-14T16:44:22.812Z,2.05
2023-03-14T16:46:49.719Z,1.92
2023-03-14T16:49:16.428Z,2.00
2023-03-14T16:51:43.330Z,1.80
2023-03-14T16:54:10.036Z,1.92
2023-03-14T16:56:36.685Z,1.90
2023-03-14T16:59:03.443Z,1.70
2023-03-14T17:01:30.169Z,1.50
2023-03-14T17:03:57.158Z,1.63
2023-03-14T17:06:25.992Z,1.90
2023-03-14T17:08:53.530Z,1.60
2023-03-14T17:11:20.233Z,1.60
2023-03-14T17:13:46.942Z,1.80
2023-03-14T17:16:13.614Z,1.50
2023-03-14T17:18:40.310Z,65.25
2023-03-14T17:21:06.909Z,62.05
2023-03-14T17:23:33.793Z,15.57
2023-03-14T17:26:00.444Z,366.60
2023-03-14T17:28:27.485Z,236.23
2023-03-14T17:31:12.851Z,57.58
2023-03-14T17:33:39.569Z,38.10
2023-03-14T17:36:06.851Z,36.63
2023-03-14T17:38:37.008Z,35.22
2023-03-14T17:41:04.449Z,36.35
2023-03-14T17:43:32.286Z,37.15
2023-03-14T17:46:06.388Z,37.10
2023-03-14T17:48:33.153Z,37.03
2023-03-14T17:51:02.085Z,38.20
2023-03-14T17:53:29.670Z,36.97
2023-03-14T17:55:56.502Z,35.80
2023-03-14T17:58:23.667Z,33.63
2023-03-14T18:00:51.378Z,35.55
2023-03-14T18:03:18.035Z,33.78
2023-03-14T18:05:44.729Z,33.33
2023-03-14T18:08:13.163Z,34.47
2023-03-14T18:10:40.077Z,36.60
2023-03-14T18:13:06.898Z,33.25
2023-03-14T18:15:33.948Z,31.05
2023-03-14T18:18:02.205Z,31.85
2023-03-14T18:20:29.412Z,33.17
2023-03-14T18:22:56.391Z,32.78
2023-03-14T18:25:23.925Z,32.10
2023-03-14T18:27:50.984Z,31.55
2023-03-14T18:30:20.373Z,32.42
2023-03-14T18:32:47.439Z,31.13
2023-03-14T18:35:14.261Z,32.13
2023-03-14T18:37:41.013Z,31.65
2023-03-14T18:40:10.497Z,31.90
2023-03-14T18:42:37.225Z,29.70
2023-03-14T18:45:04.300Z,28.98
2023-03-14T18:47:31.822Z,28.85
2023-03-14T18:49:58.428Z,28.27
2023-03-14T18:52:25.994Z,28.60
2023-03-14T18:54:52.813Z,27.85
2023-03-14T18:57:19.486Z,27.90
2023-03-14T18:59:46.177Z,28.20
2023-03-14T19:02:16.524Z,26.63
2023-03-14T19:04:44.117Z,25.38
2023-03-14T19:07:11.028Z,25.13
2023-03-14T19:09:37.678Z,26.20
2023-03-14T19:12:04.379Z,25.90
2023-03-14T19:14:31.406Z,25.25
2023-03-14T19:16:58.237Z,25.10
2023-03-14T19:19:25.025Z,25.55
2023-03-14T19:21:51.681Z,25.20
2023-03-14T19:24:19.720Z,24.48
2023-03-14T19:26:46.464Z,25.35
2023-03-14T19:29:13.184Z,23.38
2023-03-14T19:31:40.502Z,23.67
2023-03-14T19:34:07.206Z,24.17
2023-03-14T19:36:35.863Z,23.65
2023-03-14T19:39:02.904Z,23.65
2023-03-14T19:41:30.378Z,23.05
2023-03-14T19:43:57.062Z,23.63
2023-03-14T19:46:23.824Z,22.95
2023-03-14T19:48:54.155Z,22.45
2023-03-14T19:51:22.301Z,21.75
2023-03-14T19:53:49.385Z,20.98
2023-03-14T19:56:16.125Z,22.55
2023-03-14T19:58:43.761Z,21.27
2023-03-14T20:01:12.895Z,21.60
2023-03-14T20:03:41.462Z,21.67
2023-03-14T20:06:09.384Z,20.45
2023-03-14T20:08:36.078Z,21.30
2023-03-14T20:11:06.803Z,20.13
2023-03-14T20:13:34.959Z,19.58
2023-03-14T20:16:05.330Z,20.95
2023-03-14T20:18:32.073Z,19.98
2023-03-14T20:20:59.730Z,20.02
2023-03-14T20:23:26.639Z,19.25
2023-03-14T20:25:59.603Z,18.58
2023-03-14T20:28:26.676Z,20.08
2023-03-14T20:30:54.994Z,19.13
2023-03-14T20:33:22.252Z,18.85
2023-03-14T20:35:56.661Z,19.65
2023-03-14T20:38:24.284Z,18.52
2023-03-14T20:40:51.212Z,19.65
2023-03-14T20:43:18.019Z,19.08
2023-03-14T20:45:44.807Z,18.30
2023-03-14T20:48:11.476Z,18.20
2023-03-14T20:50:39.417Z,18.45
2023-03-14T20:53:06.735Z,17.88
2023-03-14T20:55:35.857Z,17.17
2023-03-14T20:58:03.177Z,18.27
2023-03-14T21:00:33.162Z,16.40
2023-03-14T21:03:01.631Z,16.55
2023-03-14T21:05:28.465Z,16.20
2023-03-14T21:07:55.334Z,15.32
2023-03-14T21:10:22.304Z,16.83
2023-03-14T21:12:49.226Z,16.08
2023-03-14T21:15:16.228Z,16.05
2023-03-14T21:17:46.053Z,15.95
2023-03-14T21:20:13.441Z,16.77
2023-03-14T21:22:40.099Z,15.75
2023-03-14T21:25:07.082Z,15.88
2023-03-14T21:27:33.821Z,16.20
2023-03-14T21:30:00.533Z,16.13
2023-03-14T21:32:27.295Z,15.07
2023-03-14T21:34:54.000Z,15.38
2023-03-14T21:37:22.353Z,15.02
2023-03-14T21:39:49.007Z,14.85
2023-03-14T21:42:15.658Z,15.43
2023-03-14T21:44:48.508Z,14.50
2023-03-14T21:49:42.481Z,15.05
2023-03-14T21:52:10.116Z,14.45
2023-03-14T21:54:36.834Z,14.82
2023-03-14T21:57:06.314Z,14.52
2023-03-14T21:59:34.076Z,14.05
2023-03-14T22:02:02.697Z,14.57
2023-03-14T22:04:36.052Z,15.27
2023-03-14T22:07:10.356Z,13.65
2023-03-14T22:09:39.033Z,13.05
2023-03-14T22:12:05.778Z,13.75
2023-03-14T22:14:32.409Z,13.75
2023-03-14T22:16:59.981Z,13.57
2023-03-14T22:19:27.546Z,14.18
2023-03-14T22:21:54.296Z,13.05
2023-03-14T22:24:20.933Z,13.85
2023-03-14T22:26:47.496Z,12.90
2023-03-14T22:29:14.285Z,13.05
2023-03-14T22:31:40.879Z,13.15
2023-03-14T22:34:07.478Z,12.93
2023-03-14T22:36:34.086Z,13.23
2023-03-14T22:39:00.714Z,13.02
2023-03-14T22:41:27.336Z,12.32
2023-03-14T22:43:55.099Z,12.57
2023-03-14T22:46:21.656Z,13.05
2023-03-14T22:48:48.261Z,12.02
2023-03-14T22:51:14.928Z,13.40
2023-03-14T22:53:41.640Z,12.27
2023-03-14T22:56:08.380Z,12.25
2023-03-14T22:58:35.003Z,10.82
2023-03-14T23:01:01.875Z,11.48
2023-03-14T23:03:28.638Z,12.30
2023-03-14T23:05:55.252Z,11.57
2023-03-14T23:08:21.850Z,11.52
2023-03-14T23:10:48.453Z,11.73
2023-03-14T23:13:15.062Z,11.80
2023-03-14T23:15:42.769Z,11.23
2023-03-14T23:18:10.290Z,11.88
2023-03-14T23:20:40.681Z,12.48
2023-03-14T23:23:08.305Z,10.63
2023-03-14T23:25:41.558Z,10.25
2023-03-14T23:28:19.016Z,10.60
2023-03-14T23:30:45.748Z,10.32
2023-03-14T23:33:12.313Z,11.38
2023-03-14T23:35:38.920Z,11.68
2023-03-14T23:38:05.548Z,10.82
2023-03-14T23:40:32.122Z,10.45
2023-03-14T23:42:58.739Z,10.75
2023-03-14T23:45:25.340Z,10.98
2023-03-14T23:47:51.835Z,11.45
2023-03-14T23:50:21.711Z,11.15
2023-03-14T23:52:48.291Z,10.38
2023-03-14T23:55:14.859Z,9.80
2023-03-14T23:57:41.589Z,10.23
